createdAt,value
2018-11-11T00:00:45.422Z,22.17
2018-11-11T00:03:12.843Z,24.53
2018-11-11T00:05:40.317Z,23.63
2018-11-11T00:08:07.848Z,23.20
2018-11-11T00:10:35.646Z,21.63
2018-11-11T00:13:03.165Z,21.07
2018-11-11T00:15:30.712Z,19.80
2018-11-11T00:17:58.123Z,22.00
2018-11-11T00:20:25.568Z,18.43
2018-11-11T00:22:53.015Z,22.17
2018-11-11T00:25:20.460Z,20.27
2018-11-11T00:27:47.918Z,18.33
2018-11-11T00:30:18.624Z,18.20
2018-11-11T00:32:46.074Z,20.87
2018-11-11T00:35:13.543Z,19.30
2018-11-11T00:37:41.331Z,18.10
2018-11-11T00:40:09.203Z,17.60
2018-11-11T00:42:36.608Z,17.67
2018-11-11T00:45:04.047Z,20.50
2018-11-11T00:47:33.167Z,18.73
2018-11-11T00:50:00.603Z,17.10
2018-11-11T00:52:28.020Z,15.87
2018-11-11T00:54:55.524Z,16.33
2018-11-11T00:57:23.165Z,16.20
2018-11-11T00:59:50.659Z,16.90
2018-11-11T01:02:18.135Z,15.30
2018-11-11T01:04:45.681Z,16.47
2018-11-11T01:07:13.179Z,17.57
2018-11-11T01:09:40.609Z,19.73
2018-11-11T01:12:08.054Z,17.37
2018-11-11T01:14:35.488Z,19.37
2018-11-11T01:17:02.886Z,20.53
2018-11-11T01:19:30.332Z,19.63
2018-11-11T01:21:57.778Z,20.03
2018-11-11T01:24:25.195Z,20.90
2018-11-11T01:26:53.407Z,21.20
2018-11-11T01:29:20.839Z,19.33
2018-11-11T01:31:48.273Z,18.93
2018-11-11T01:34:15.729Z,16.90
2018-11-11T01:36:43.135Z,16.90
2018-11-11T01:39:11.106Z,15.30
2018-11-11T01:41:38.560Z,14.60
2018-11-11T01:44:06.052Z,16.20
2018-11-11T01:46:33.919Z,16.60
2018-11-11T01:49:01.380Z,21.17
2018-11-11T01:51:28.803Z,18.23
2018-11-11T01:54:00.148Z,19.27
2018-11-11T01:56:27.564Z,19.50
2018-11-11T01:58:54.967Z,20.13
2018-11-11T02:01:22.413Z,19.73
2018-11-11T02:03:49.890Z,19.53
2018-11-11T02:06:17.336Z,21.43
2018-11-11T02:08:44.787Z,23.57
2018-11-11T02:11:12.215Z,25.93
2018-11-11T02:13:39.947Z,26.70
2018-11-11T02:16:07.439Z,26.20
2018-11-11T02:18:34.979Z,26.13
2018-11-11T02:21:02.457Z,26.80
2018-11-11T02:23:29.929Z,30.60
2018-11-11T02:25:57.445Z,30.13
2018-11-11T02:28:24.905Z,33.23
2018-11-11T02:30:52.699Z,32.23
2018-11-11T02:33:20.099Z,33.73
2018-11-11T02:35:47.530Z,32.80
2018-11-11T02:38:15.079Z,33.57
2018-11-11T02:40:43.133Z,33.97
2018-11-11T02:43:10.797Z,34.23
2018-11-11T02:45:38.280Z,35.00
2018-11-11T02:48:05.787Z,32.07
2018-11-11T02:50:33.284Z,30.93
2018-11-11T02:53:00.744Z,33.00
2018-11-11T02:55:28.187Z,30.30
2018-11-11T02:57:55.847Z,31.53
2018-11-11T03:00:23.460Z,29.50
2018-11-11T03:02:51.000Z,33.80
2018-11-11T03:05:19.041Z,28.33
2018-11-11T03:07:46.537Z,28.23
2018-11-11T03:10:14.955Z,28.63
2018-11-11T03:15:21.602Z,26.47
2018-11-11T03:17:49.080Z,27.83
2018-11-11T03:20:17.002Z,24.43
2018-11-11T03:22:44.539Z,26.70
2018-11-11T03:25:13.251Z,26.73
2018-11-11T03:27:41.000Z,27.50
2018-11-11T03:30:09.332Z,23.43
2018-11-11T03:32:36.874Z,23.23
2018-11-11T03:35:05.259Z,27.53
2018-11-11T03:37:32.705Z,21.57
2018-11-11T03:40:00.135Z,26.83
2018-11-11T03:42:27.551Z,23.30
2018-11-11T03:44:54.997Z,24.23
2018-11-11T03:47:22.573Z,23.53
2018-11-11T03:49:50.019Z,25.40
2018-11-11T03:52:17.480Z,27.73
2018-11-11T03:54:44.911Z,27.27
2018-11-11T03:57:12.531Z,25.53
2018-11-11T03:59:40.059Z,23.97
2018-11-11T04:02:07.476Z,24.17
2018-11-11T04:04:34.980Z,27.10
2018-11-11T04:07:02.394Z,26.23
2018-11-11T04:09:29.894Z,26.80
2018-11-11T04:11:57.319Z,26.77
2018-11-11T04:14:24.743Z,28.23
2018-11-11T04:16:52.243Z,26.90
2018-11-11T04:19:19.655Z,29.80
2018-11-11T04:21:47.129Z,30.30
2018-11-11T04:24:14.540Z,35.67
2018-11-11T04:26:42.013Z,36.00
2018-11-11T04:29:09.615Z,36.53
2018-11-11T04:31:37.219Z,44.57
2018-11-11T04:34:04.891Z,47.53
2018-11-11T04:36:32.413Z,51.77
2018-11-11T04:38:59.852Z,58.67
2018-11-11T04:41:27.263Z,56.93
2018-11-11T04:43:54.716Z,62.37
2018-11-11T04:46:22.279Z,66.90
2018-11-11T04:48:49.711Z,58.57
2018-11-11T04:51:17.203Z,68.77
2018-11-11T04:53:44.632Z,64.90
2018-11-11T04:56:12.866Z,59.73
2018-11-11T04:58:40.355Z,75.13
2018-11-11T05:01:07.784Z,72.10
2018-11-11T05:03:35.226Z,67.97
2018-11-11T05:06:02.778Z,70.10
2018-11-11T05:08:30.255Z,66.70
2018-11-11T05:10:57.724Z,62.17
2018-11-11T05:13:25.224Z,68.53
2018-11-11T05:15:52.672Z,65.27
2018-11-11T05:18:20.100Z,65.07
2018-11-11T05:20:47.572Z,73.77
2018-11-11T05:23:15.025Z,79.47
2018-11-11T05:25:42.515Z,82.97
2018-11-11T05:28:09.968Z,75.27
2018-11-11T05:30:37.453Z,91.60
2018-11-11T05:33:05.009Z,88.23
2018-11-11T05:35:32.507Z,73.33
2018-11-11T05:37:59.959Z,97.20
2018-11-11T05:40:27.429Z,97.83
2018-11-11T05:42:54.891Z,98.17
2018-11-11T05:45:22.372Z,102.83
2018-11-11T05:47:49.850Z,91.83
2018-11-11T05:50:17.601Z,99.80
2018-11-11T05:52:46.138Z,108.77
2018-11-11T05:55:13.681Z,106.90
2018-11-11T05:57:41.235Z,106.50
2018-11-11T06:00:10.529Z,104.00
2018-11-11T06:02:37.990Z,118.27
2018-11-11T06:05:06.294Z,97.77
2018-11-11T06:07:33.744Z,87.50
2018-11-11T06:10:01.205Z,97.07
2018-11-11T06:12:28.639Z,114.53
2018-11-11T06:14:56.107Z,100.97
2018-11-11T06:17:23.574Z,96.10
2018-11-11T06:19:51.015Z,101.33
2018-11-11T06:22:18.477Z,90.53
2018-11-11T06:24:45.914Z,92.07
2018-11-11T06:27:13.483Z,91.57
2018-11-11T06:33:11.023Z,82.03
2018-11-11T06:35:38.478Z,69.53
2018-11-11T06:38:06.006Z,82.43
2018-11-11T06:40:33.461Z,69.97
2018-11-11T06:43:01.096Z,65.50
2018-11-11T06:45:28.655Z,70.03
2018-11-11T06:47:56.104Z,69.73
2018-11-11T06:50:23.774Z,67.83
2018-11-11T06:52:51.242Z,69.63
2018-11-11T06:55:18.684Z,61.70
2018-11-11T06:57:46.122Z,47.27
2018-11-11T07:00:14.876Z,60.93
2018-11-11T07:02:47.777Z,52.77
2018-11-11T07:05:15.228Z,53.90
2018-11-11T07:07:42.775Z,51.77
2018-11-11T07:10:10.195Z,47.23
2018-11-11T07:12:37.652Z,49.80
2018-11-11T07:15:05.755Z,46.33
2018-11-11T07:17:33.193Z,46.20
2018-11-11T07:20:00.653Z,43.07
2018-11-11T07:22:28.135Z,41.97
2018-11-11T07:24:55.604Z,33.90
2018-11-11T07:27:23.110Z,40.17
2018-11-11T07:29:50.605Z,43.17
2018-11-11T07:32:18.103Z,46.13
2018-11-11T07:34:45.592Z,45.57
2018-11-11T07:37:13.177Z,39.90
2018-11-11T07:39:40.595Z,42.70
2018-11-11T07:42:08.083Z,50.57
2018-11-11T07:44:35.608Z,48.57
2018-11-11T07:47:03.011Z,44.67
2018-11-11T07:49:30.710Z,41.13
2018-11-11T07:51:58.258Z,51.00
2018-11-11T07:54:25.859Z,39.73
2018-11-11T07:56:53.279Z,33.27
2018-11-11T07:59:20.732Z,41.30
2018-11-11T08:01:48.255Z,36.27
2018-11-11T08:04:15.682Z,36.60
2018-11-11T08:06:43.145Z,33.73
2018-11-11T08:09:10.575Z,29.27
2018-11-11T08:11:43.484Z,25.43
2018-11-11T08:14:10.932Z,25.30
2018-11-11T08:16:38.431Z,22.77
2018-11-11T08:19:05.893Z,22.73
2018-11-11T08:21:33.404Z,21.03
2018-11-11T08:24:01.774Z,21.80
2018-11-11T08:26:29.201Z,15.37
2018-11-11T08:28:56.687Z,18.03
2018-11-11T08:31:24.254Z,16.43
2018-11-11T08:33:51.685Z,13.87
2018-11-11T08:36:19.154Z,16.57
2018-11-11T08:38:46.618Z,15.07
2018-11-11T08:41:14.156Z,14.70
2018-11-11T08:43:41.640Z,14.40
2018-11-11T08:46:09.129Z,16.97
2018-11-11T08:48:36.611Z,18.43
2018-11-11T08:51:04.123Z,19.27
2018-11-11T08:53:31.567Z,18.83
2018-11-11T08:55:58.989Z,21.63
2018-11-11T08:58:26.459Z,22.67
2018-11-11T09:00:53.987Z,19.13
2018-11-11T09:03:21.462Z,24.50
2018-11-11T09:05:48.978Z,26.07
2018-11-11T09:08:16.487Z,28.10
2018-11-11T09:10:43.978Z,27.13
2018-11-11T09:13:11.476Z,34.53
2018-11-11T09:15:38.999Z,37.40
2018-11-11T09:18:06.483Z,32.80
2018-11-11T09:20:33.959Z,35.47
2018-11-11T09:23:01.466Z,38.10
2018-11-11T09:25:28.952Z,40.27
2018-11-11T09:27:56.406Z,39.13
2018-11-11T09:30:23.973Z,44.00
2018-11-11T09:32:51.435Z,42.70
2018-11-11T09:35:18.908Z,45.53
2018-11-11T09:37:46.389Z,47.87
2018-11-11T09:40:14.011Z,45.73
2018-11-11T09:42:41.671Z,46.17
2018-11-11T09:45:10.426Z,44.40
2018-11-11T09:47:38.019Z,39.80
2018-11-11T09:50:06.908Z,38.57
2018-11-11T09:52:34.499Z,39.97
2018-11-11T09:55:02.005Z,35.53
2018-11-11T09:57:29.567Z,34.43
2018-11-11T09:59:57.060Z,36.93
2018-11-11T10:02:24.724Z,37.40
2018-11-11T10:05:06.446Z,40.03
2018-11-11T10:07:42.129Z,43.50
2018-11-11T10:10:18.751Z,47.60
2018-11-11T10:13:57.720Z,51.83
2018-11-11T10:16:33.024Z,54.23
2018-11-11T10:19:06.619Z,62.97
2018-11-11T10:21:44.339Z,83.90
2018-11-11T10:24:16.236Z,92.60
2018-11-11T10:26:49.319Z,102.43
2018-11-11T10:29:22.058Z,82.63
2018-11-11T10:31:56.544Z,80.73
2018-11-11T10:34:43.267Z,79.03
2018-11-11T10:37:13.484Z,76.30
2018-11-11T10:39:47.797Z,75.07
2018-11-11T10:42:54.351Z,77.07
2018-11-11T10:45:26.661Z,71.33
2018-11-11T10:48:02.771Z,72.80
2018-11-11T10:50:34.907Z,63.47
2018-11-11T10:53:02.333Z,56.70
2018-11-11T10:55:29.831Z,52.07
2018-11-11T10:57:57.340Z,51.30
2018-11-11T11:00:27.801Z,55.53
2018-11-11T11:02:57.529Z,49.80
2018-11-11T11:05:24.995Z,48.97
2018-11-11T11:07:52.811Z,47.10
2018-11-11T11:10:20.300Z,45.77
2018-11-11T11:12:47.828Z,46.53
2018-11-11T11:15:15.252Z,42.03
2018-11-11T11:17:42.780Z,41.90
2018-11-11T11:20:11.004Z,41.63
2018-11-11T11:22:38.604Z,42.00
2018-11-11T11:25:06.256Z,42.90
2018-11-11T11:27:33.853Z,43.17
2018-11-11T11:30:01.504Z,41.10
2018-11-11T11:32:28.992Z,36.00
2018-11-11T11:34:56.461Z,42.17
2018-11-11T11:37:24.008Z,36.17
2018-11-11T11:39:51.577Z,39.97
2018-11-11T11:42:19.085Z,38.47
2018-11-11T11:44:46.579Z,40.17
2018-11-11T11:47:14.143Z,41.87
2018-11-11T11:49:41.589Z,39.10
2018-11-11T11:52:09.104Z,42.37
2018-11-11T11:54:36.556Z,42.10
2018-11-11T11:57:05.064Z,42.70
2018-11-11T11:59:32.611Z,39.83
2018-11-11T12:02:00.173Z,43.30
2018-11-11T12:04:28.532Z,43.27
2018-11-11T12:06:56.052Z,44.40
2018-11-11T12:09:23.541Z,49.67
2018-11-11T12:11:51.008Z,45.33
2018-11-11T13:15:53.888Z,51.13
2018-11-11T13:40:43.039Z,32.53
2018-11-11T14:46:26.650Z,37.70
2018-11-11T14:48:54.200Z,31.10
2018-11-11T14:51:22.802Z,29.67
2018-11-11T14:53:50.376Z,25.30
2018-11-11T14:56:17.864Z,31.10
2018-11-11T14:58:45.741Z,29.43
2018-11-11T15:01:13.175Z,29.67
2018-11-11T15:03:40.752Z,38.80
2018-11-11T15:06:08.298Z,32.50
2018-11-11T15:08:35.837Z,30.33
2018-11-11T15:28:31.441Z,30.53
2018-11-11T15:30:59.111Z,25.17
2018-11-11T15:33:26.451Z,26.97
2018-11-11T15:35:54.021Z,26.17
2018-11-11T15:38:21.480Z,25.27
2018-11-11T15:40:48.975Z,30.17
2018-11-11T15:43:16.477Z,31.17
2018-11-11T15:45:44.010Z,26.00
2018-11-11T15:48:11.484Z,28.87
2018-11-11T15:50:39.041Z,28.07
2018-11-11T15:53:07.671Z,27.97
2018-11-11T15:55:36.494Z,29.90
2018-11-11T15:58:03.985Z,33.20
2018-11-11T16:00:32.938Z,30.27
2018-11-11T16:03:00.416Z,27.00
2018-11-11T16:05:27.940Z,26.73
2018-11-11T16:10:35.651Z,25.03
2018-11-11T16:13:03.131Z,23.03
2018-11-11T16:15:35.106Z,27.07
2018-11-11T16:18:04.206Z,25.23
2018-11-11T16:20:32.214Z,22.70
2018-11-11T16:23:01.490Z,25.63
2018-11-11T16:25:29.161Z,24.40
2018-11-11T16:27:56.532Z,26.47
2018-11-11T16:30:26.120Z,25.23
2018-11-11T16:32:54.376Z,30.40
2018-11-11T16:35:23.104Z,29.63
2018-11-11T16:37:50.652Z,31.07
2018-11-11T16:40:21.408Z,28.27
2018-11-11T16:42:50.108Z,33.30
2018-11-11T16:45:21.540Z,34.53
2018-11-11T16:47:49.042Z,31.53
2018-11-11T16:50:18.138Z,32.87
2018-11-11T16:52:46.385Z,37.43
2018-11-11T16:55:15.266Z,30.20
2018-11-11T16:57:43.083Z,40.23
2018-11-11T17:00:12.588Z,32.27
2018-11-11T17:02:40.094Z,32.13
2018-11-11T17:05:08.487Z,37.70
2018-11-11T17:07:36.044Z,34.23
2018-11-11T17:10:03.595Z,35.83
2018-11-11T17:12:31.174Z,34.30
2018-11-11T17:14:58.731Z,36.40
2018-11-11T17:17:26.203Z,28.63
2018-11-11T17:19:53.730Z,30.77
2018-11-11T17:22:22.481Z,26.47
2018-11-11T17:24:49.867Z,27.53
2018-11-11T17:27:17.363Z,23.87
2018-11-11T17:29:44.941Z,24.73
2018-11-11T17:32:12.521Z,27.00
2018-11-11T17:34:40.381Z,30.57
2018-11-11T17:37:07.851Z,26.93
2018-11-11T17:39:35.357Z,30.40
2018-11-11T17:42:02.859Z,27.83
2018-11-11T17:44:30.340Z,29.57
2018-11-11T17:46:57.779Z,30.70
2018-11-11T17:49:26.351Z,28.90
2018-11-11T17:51:54.248Z,30.97
2018-11-11T17:54:21.728Z,32.83
2018-11-11T17:56:49.257Z,30.93
2018-11-11T17:59:16.708Z,30.07
2018-11-11T18:01:44.229Z,31.93
2018-11-11T18:04:11.806Z,31.20
2018-11-11T18:06:39.350Z,32.70
2018-11-11T18:09:08.067Z,29.20
2018-11-11T18:11:36.547Z,29.83
2018-11-11T18:14:04.144Z,29.87
2018-11-11T18:16:31.672Z,29.93
2018-11-11T18:18:59.169Z,35.03
2018-11-11T18:21:27.629Z,38.97
2018-11-11T18:23:55.076Z,33.83
2018-11-11T18:26:22.653Z,34.70
2018-11-11T18:28:50.116Z,39.10
2018-11-11T18:31:18.333Z,38.27
2018-11-11T18:33:45.839Z,42.83
2018-11-11T18:36:13.354Z,42.10
2018-11-11T18:38:40.788Z,37.67
2018-11-11T18:41:08.326Z,42.13
2018-11-11T18:43:35.969Z,40.43
2018-11-11T18:46:03.504Z,35.73
2018-11-11T18:48:31.031Z,36.70
2018-11-11T18:50:58.521Z,37.10
2018-11-11T18:53:26.061Z,46.85
2018-11-11T18:55:53.895Z,40.13
2018-11-11T18:58:21.362Z,41.33
2018-11-11T19:00:48.847Z,38.70
2018-11-11T19:03:16.320Z,36.93
2018-11-11T19:05:43.878Z,38.73
2018-11-11T19:08:11.437Z,42.27
2018-11-11T19:10:39.248Z,37.23
2018-11-11T19:13:07.828Z,36.80
2018-11-11T19:15:35.467Z,36.80
2018-11-11T19:18:03.006Z,32.10
2018-11-11T19:20:30.672Z,35.00
2018-11-11T19:22:58.200Z,36.53
2018-11-11T19:25:27.497Z,33.73
2018-11-11T19:27:55.656Z,26.77
2018-11-11T19:30:24.505Z,26.10
2018-11-11T19:32:52.519Z,26.50
2018-11-11T19:35:20.093Z,24.60
2018-11-11T19:37:49.300Z,26.57
2018-11-11T19:40:18.317Z,23.73
2018-11-11T19:42:46.201Z,20.40
2018-11-11T19:45:15.215Z,22.80
2018-11-11T19:47:43.286Z,19.43
2018-11-11T19:50:12.290Z,24.33
2018-11-11T19:52:41.121Z,23.10
2018-11-11T19:55:09.203Z,21.87
2018-11-11T19:57:36.749Z,24.23
2018-11-11T20:00:04.402Z,24.27
2018-11-11T20:02:32.133Z,24.87
2018-11-11T20:04:59.787Z,25.90
2018-11-11T20:07:27.363Z,23.97
2018-11-11T20:09:54.970Z,24.00
2018-11-11T20:12:22.541Z,25.50
2018-11-11T20:14:50.218Z,24.67
2018-11-11T20:17:17.849Z,28.03
2018-11-11T20:19:45.348Z,25.83
2018-11-11T20:22:12.970Z,24.80
2018-11-11T20:24:40.627Z,24.10
2018-11-11T20:27:08.381Z,24.90
2018-11-11T20:29:36.106Z,26.67
2018-11-11T20:32:03.679Z,24.43
2018-11-11T20:34:31.279Z,27.17
2018-11-11T20:36:58.911Z,21.23
2018-11-11T20:39:26.446Z,24.63
2018-11-11T20:41:54.005Z,24.70
2018-11-11T20:44:21.503Z,25.23
2018-11-11T20:46:49.036Z,24.20
2018-11-11T20:49:16.552Z,24.13
2018-11-11T20:51:44.111Z,22.77
2018-11-11T20:54:11.636Z,25.10
2018-11-11T20:56:39.211Z,25.83
2018-11-11T20:59:06.714Z,24.60
2018-11-11T21:01:34.262Z,24.73
2018-11-11T21:04:01.822Z,21.27
2018-11-11T21:06:29.324Z,24.03
2018-11-11T21:08:56.844Z,24.60
2018-11-11T21:11:24.316Z,21.67
2018-11-11T21:13:51.851Z,23.40
2018-11-11T21:16:19.392Z,21.90
2018-11-11T21:18:46.828Z,24.83
2018-11-11T21:21:14.381Z,23.60
2018-11-11T21:23:41.823Z,24.13
2018-11-11T21:26:09.300Z,23.00
2018-11-11T21:28:36.823Z,22.97
2018-11-11T21:31:04.265Z,21.07
2018-11-11T21:33:31.711Z,24.17
2018-11-11T21:35:59.155Z,23.10
2018-11-11T21:38:26.642Z,22.70
2018-11-11T21:40:54.130Z,20.03
2018-11-11T21:43:21.627Z,19.10
2018-11-11T21:45:49.101Z,19.47
2018-11-11T21:48:16.624Z,19.23
2018-11-11T21:50:44.053Z,16.50
2018-11-11T21:53:30.772Z,16.30
2018-11-11T21:55:58.874Z,15.93
2018-11-11T21:58:26.508Z,14.13
2018-11-11T22:00:54.166Z,14.10
2018-11-11T22:03:21.728Z,13.23
2018-11-11T22:05:49.201Z,15.07
2018-11-11T22:08:17.353Z,15.20
2018-11-11T22:10:44.798Z,13.40
2018-11-11T22:13:12.407Z,12.73
2018-11-11T22:15:39.888Z,14.23
2018-11-11T22:18:07.334Z,16.33
2018-11-11T22:20:34.808Z,15.77
2018-11-11T22:23:02.396Z,15.27
2018-11-11T22:25:29.871Z,16.73
2018-11-11T22:27:57.324Z,15.13
2018-11-11T22:30:24.925Z,16.10
2018-11-11T22:32:52.386Z,16.27
2018-11-11T22:35:19.807Z,15.53
2018-11-11T22:37:47.289Z,15.23
2018-11-11T22:40:14.765Z,14.17
2018-11-11T22:42:42.249Z,16.50
2018-11-11T22:45:11.923Z,18.27
2018-11-11T22:47:39.370Z,16.20
2018-11-11T22:50:07.573Z,18.93
2018-11-11T22:52:35.071Z,16.83
2018-11-11T22:55:02.576Z,16.83
2018-11-11T22:57:30.025Z,13.83
2018-11-11T22:59:57.508Z,15.03
2018-11-11T23:02:24.930Z,15.73
2018-11-11T23:04:52.399Z,16.17
2018-11-11T23:07:19.853Z,15.37
2018-11-11T23:09:47.339Z,15.17
2018-11-11T23:12:14.866Z,15.50
2018-11-11T23:14:42.484Z,13.23
2018-11-11T23:17:09.966Z,15.73
2018-11-11T23:19:37.480Z,13.40
2018-11-11T23:22:05.002Z,12.67
2018-11-11T23:24:32.444Z,15.73
2018-11-11T23:26:59.935Z,12.17
2018-11-11T23:29:27.403Z,10.97
2018-11-11T23:31:54.892Z,11.80
2018-11-11T23:34:22.330Z,11.13
2018-11-11T23:36:49.788Z,12.63
2018-11-11T23:39:17.199Z,12.57
2018-11-11T23:41:44.675Z,9.47
2018-11-11T23:44:12.160Z,10.73
2018-11-11T23:46:39.787Z,11.17
2018-11-11T23:50:36.625Z,11.43
2018-11-11T23:53:04.388Z,17.63
2018-11-11T23:55:31.909Z,19.43
2018-11-11T23:57:59.380Z,21.90
